Time;durP1;ratioP1;P1;durP2;ratioP2;P2;SDS_P1;SDS_P2;PMS_P1;PMS_P2;Temp;Humidity;BMP_temperature;BMP_pressure;BME280_temperature;BME280_humidity;BME280_pressure;Samples;Min_cycle;Max_cycle;Signal;HPM_P1;HPM_P2
2023/04/24 00:02:14;;;;;;;8.67;5.40;;;12.80;1.00;;;;;;5073125;27;20523;-77
2023/04/24 00:04:44;;;;;;;9.17;5.70;;;12.80;1.00;;;;;;5072747;28;20429;-75
2023/04/24 00:07:11;;;;;;;8.50;5.67;;;12.70;1.00;;;;;;5071638;28;20482;-76
2023/04/24 00:09:38;;;;;;;8.13;5.10;;;12.70;1.00;;;;;;5076553;28;21064;-76
2023/04/24 00:12:05;;;;;;;9.37;6.43;;;12.70;1.00;;;;;;5074876;28;20483;-77
2023/04/24 00:14:32;;;;;;;8.67;6.30;;;12.70;1.00;;;;;;5075567;28;20509;-76
2023/04/24 00:17:01;;;;;;;9.90;5.77;;;12.70;1.00;;;;;;5061017;28;20494;-78
2023/04/24 00:19:29;;;;;;;8.80;5.83;;;12.80;1.00;;;;;;5090173;28;20426;-77
2023/04/24 00:21:57;;;;;;;8.90;6.40;;;12.80;1.00;;;;;;5075249;28;20477;-77
2023/04/24 00:24:24;;;;;;;8.27;5.73;;;12.70;1.00;;;;;;5075836;28;20471;-77
2023/04/24 00:26:51;;;;;;;8.90;5.47;;;12.70;1.00;;;;;;5076212;28;20473;-77
2023/04/24 00:29:18;;;;;;;9.60;6.30;;;12.70;1.00;;;;;;5076893;28;20605;-77
2023/04/24 00:31:45;;;;;;;8.27;5.60;;;12.60;1.00;;;;;;5078497;28;20471;-77
2023/04/24 00:34:12;;;;;;;8.83;6.50;;;12.60;1.00;;;;;;5074683;28;20563;-75
2023/04/24 00:36:41;;;;;;;8.60;6.00;;;12.50;1.00;;;;;;5078636;27;20461;-76
2023/04/24 00:39:08;;;;;;;8.77;5.87;;;12.50;1.00;;;;;;5073674;28;20463;-76
2023/04/24 00:41:36;;;;;;;10.93;6.07;;;12.40;1.00;;;;;;5076376;28;21116;-77
2023/04/24 00:44:03;;;;;;;9.77;6.60;;;12.40;1.00;;;;;;5077605;28;20467;-76
2023/04/24 00:46:30;;;;;;;8.40;5.80;;;12.50;1.00;;;;;;5075223;27;20557;-76
2023/04/24 00:48:57;;;;;;;9.43;6.00;;;12.40;1.00;;;;;;5073946;28;20521;-76
2023/04/24 00:51:24;;;;;;;8.70;5.90;;;12.40;1.00;;;;;;5074589;27;20981;-76
2023/04/24 00:53:52;;;;;;;8.33;6.27;;;12.30;1.00;;;;;;5073463;28;20435;-76
2023/04/24 00:56:20;;;;;;;10.77;6.63;;;12.30;1.00;;;;;;5072493;28;20423;-76
2023/04/24 00:58:47;;;;;;;12.37;6.40;;;12.20;1.00;;;;;;5074804;28;20485;-76
2023/04/24 01:01:14;;;;;;;9.40;6.57;;;12.10;1.00;;;;;;5072459;28;20513;-77
2023/04/24 01:03:42;;;;;;;9.57;6.27;;;12.10;1.00;;;;;;5072249;28;20443;-75
2023/04/24 01:06:11;;;;;;;9.00;6.70;;;12.00;1.00;;;;;;5074189;28;21327;-75
2023/04/24 01:08:39;;;;;;;9.23;6.10;;;12.00;1.00;;;;;;5075985;28;20465;-75
2023/04/24 01:11:08;;;;;;;9.40;6.30;;;12.00;1.00;;;;;;5072538;28;20470;-76
2023/04/24 01:13:35;;;;;;;10.33;7.03;;;12.00;1.00;;;;;;5073158;28;20625;-77
2023/04/24 01:16:02;;;;;;;9.67;6.33;;;12.00;1.00;;;;;;5078928;28;20482;-77
2023/04/24 01:18:29;;;;;;;9.77;6.10;;;12.00;1.00;;;;;;5076657;28;20458;-77
2023/04/24 01:20:59;;;;;;;8.90;6.37;;;12.10;1.00;;;;;;5072531;28;20879;-79
2023/04/24 01:23:28;;;;;;;10.40;7.13;;;12.10;1.00;;;;;;5071441;28;20465;-76
2023/04/24 01:25:55;;;;;;;10.30;6.43;;;12.10;1.00;;;;;;5069033;28;20468;-76
2023/04/24 01:28:23;;;;;;;8.93;6.50;;;12.10;1.00;;;;;;5073154;28;20580;-77
2023/04/24 01:30:50;;;;;;;9.63;7.30;;;12.00;1.00;;;;;;5069861;28;20553;-76
2023/04/24 01:33:18;;;;;;;10.10;7.30;;;12.00;1.00;;;;;;5069376;28;20449;-76
2023/04/24 01:35:45;;;;;;;9.37;6.60;;;12.00;1.00;;;;;;5073327;28;20454;-76
2023/04/24 01:38:12;;;;;;;10.30;7.00;;;12.10;1.00;;;;;;5071391;28;20419;-77
2023/04/24 01:40:40;;;;;;;10.70;6.63;;;12.10;1.00;;;;;;5068865;28;20537;-77
2023/04/24 01:43:08;;;;;;;10.57;7.30;;;12.10;1.00;;;;;;5068023;28;21244;-76
2023/04/24 01:45:35;;;;;;;9.27;6.63;;;12.20;1.00;;;;;;5072607;28;20450;-76
2023/04/24 01:48:02;;;;;;;10.30;7.00;;;12.10;1.00;;;;;;5072840;28;20426;-75
2023/04/24 01:50:30;;;;;;;10.10;7.03;;;12.10;1.00;;;;;;5071599;28;20493;-75
2023/04/24 01:52:57;;;;;;;10.97;7.47;;;12.00;1.00;;;;;;5070450;28;21054;-77
2023/04/24 01:55:24;;;;;;;8.93;6.90;;;12.10;1.00;;;;;;5065516;28;20457;-76
2023/04/24 01:57:55;;;;;;;10.87;7.83;;;12.20;1.00;;;;;;5069884;28;20486;-76
2023/04/24 02:00:22;;;;;;;9.10;6.93;;;12.20;1.00;;;;;;5070184;28;20466;-76
2023/04/24 02:02:49;;;;;;;10.10;7.13;;;12.20;1.00;;;;;;5066590;28;20541;-75
2023/04/24 02:05:16;;;;;;;9.40;6.70;;;12.20;1.00;;;;;;5064310;28;20475;-76
2023/04/24 02:07:43;;;;;;;9.30;6.73;;;12.20;1.00;;;;;;5071159;28;20462;-77
2023/04/24 02:10:11;;;;;;;11.37;7.97;;;12.30;1.00;;;;;;5069661;28;20543;-75
2023/04/24 02:12:38;;;;;;;11.13;7.13;;;12.10;1.00;;;;;;5066339;28;20848;-76
2023/04/24 02:15:07;;;;;;;10.63;7.20;;;12.10;1.00;;;;;;5067371;28;20540;-77
2023/04/24 02:17:34;;;;;;;9.90;6.83;;;12.20;1.00;;;;;;5070797;28;20540;-75
2023/04/24 02:20:02;;;;;;;11.10;7.70;;;12.20;1.00;;;;;;5068474;28;20449;-76
2023/04/24 02:22:29;;;;;;;10.70;6.93;;;12.10;1.00;;;;;;5068272;28;20560;-76
2023/04/24 02:24:56;;;;;;;11.07;7.70;;;12.20;1.00;;;;;;5066280;28;20470;-75
2023/04/24 02:27:23;;;;;;;9.27;7.57;;;12.20;1.00;;;;;;5069306;28;20465;-76
2023/04/24 02:29:50;;;;;;;11.17;7.83;;;12.10;1.00;;;;;;5070336;28;20981;-76
2023/04/24 02:32:18;;;;;;;10.43;6.87;;;12.10;1.00;;;;;;5070490;28;20517;-76
2023/04/24 02:34:45;;;;;;;10.77;7.27;;;12.10;1.00;;;;;;5073688;28;20423;-75
2023/04/24 02:37:12;;;;;;;11.90;9.40;;;12.20;1.00;;;;;;5076303;28;20509;-75
2023/04/24 02:39:39;;;;;;;10.30;7.50;;;12.20;1.00;;;;;;5071847;28;20540;-75
2023/04/24 02:42:07;;;;;;;9.50;6.87;;;12.30;1.00;;;;;;5069927;28;20989;-76
2023/04/24 02:44:35;;;;;;;9.13;7.20;;;12.40;1.00;;;;;;5071855;28;21093;-75
2023/04/24 02:47:02;;;;;;;9.87;7.43;;;12.40;1.00;;;;;;5072972;28;20482;-75
2023/04/24 02:49:30;;;;;;;12.30;7.90;;;12.40;1.00;;;;;;5075845;28;20537;-75
2023/04/24 02:51:57;;;;;;;11.67;8.07;;;12.40;1.00;;;;;;5072860;28;20455;-76
2023/04/24 02:54:24;;;;;;;14.70;8.17;;;12.30;1.00;;;;;;5073379;28;20521;-77
2023/04/24 02:56:51;;;;;;;10.13;8.03;;;12.30;1.00;;;;;;5072179;28;20470;-76
2023/04/24 02:59:17;;;;;;;11.20;8.10;;;12.20;1.00;;;;;;5072009;28;20502;-76
2023/04/24 03:01:44;;;;;;;11.77;8.33;;;12.30;1.00;;;;;;5068015;28;20869;-76
2023/04/24 03:04:11;;;;;;;13.30;8.07;;;12.30;1.00;;;;;;5073271;28;20484;-77
2023/04/24 03:06:41;;;;;;;12.13;8.73;;;12.30;1.00;;;;;;5068012;28;20460;-77
2023/04/24 03:09:08;;;;;;;10.33;8.03;;;12.40;1.00;;;;;;5069439;28;20567;-76
2023/04/24 03:11:35;;;;;;;11.13;9.03;;;12.40;1.00;;;;;;5070250;28;21035;-76
2023/04/24 03:14:02;;;;;;;12.13;9.20;;;12.40;1.00;;;;;;5073901;28;20910;-76
2023/04/24 03:16:29;;;;;;;12.10;9.30;;;12.50;1.00;;;;;;5078261;28;20531;-76
2023/04/24 03:18:56;;;;;;;11.50;9.30;;;12.50;1.00;;;;;;5069590;28;20478;-76
2023/04/24 03:21:23;;;;;;;10.87;8.07;;;12.60;1.00;;;;;;5071579;28;22594;-76
2023/04/24 03:23:51;;;;;;;9.90;7.70;;;12.60;1.00;;;;;;5070136;28;20676;-77
2023/04/24 03:26:19;;;;;;;11.20;8.47;;;12.60;1.00;;;;;;5072638;28;20651;-76
2023/04/24 03:28:46;;;;;;;10.60;7.70;;;12.70;1.00;;;;;;5072945;28;20483;-76
2023/04/24 03:31:15;;;;;;;9.67;7.13;;;12.70;1.00;;;;;;5068958;28;20545;-77
2023/04/24 03:33:42;;;;;;;10.70;8.33;;;12.70;1.00;;;;;;5070430;28;20459;-77
2023/04/24 03:36:09;;;;;;;9.90;7.73;;;12.70;1.00;;;;;;5071469;28;20451;-77
2023/04/24 03:38:35;;;;;;;10.70;8.17;;;12.80;1.00;;;;;;5070190;28;20536;-77
2023/04/24 03:41:04;;;;;;;10.60;8.47;;;12.80;1.00;;;;;;5072710;28;20499;-76
2023/04/24 03:43:33;;;;;;;10.10;7.60;;;12.90;1.00;;;;;;5068888;28;20533;-77
2023/04/24 03:46:00;;;;;;;10.37;7.23;;;12.90;1.00;;;;;;5072002;27;20467;-77
2023/04/24 03:48:28;;;;;;;10.60;8.03;;;12.90;1.00;;;;;;5072926;28;20968;-76
2023/04/24 03:50:55;;;;;;;9.60;7.53;;;12.90;1.00;;;;;;5072584;28;20479;-76
2023/04/24 03:53:30;;;;;;;9.87;7.50;;;13.00;1.00;;;;;;5072806;28;20862;-78
2023/04/24 03:55:57;;;;;;;10.20;7.90;;;12.90;1.00;;;;;;5082153;28;20483;-78
2023/04/24 03:58:25;;;;;;;11.30;7.57;;;13.00;1.00;;;;;;5078561;28;20493;-77
2023/04/24 04:00:52;;;;;;;12.30;8.47;;;13.10;1.00;;;;;;5071366;28;20636;-77
2023/04/24 04:03:20;;;;;;;11.17;7.77;;;13.10;1.00;;;;;;5071422;28;20515;-77
2023/04/24 04:05:47;;;;;;;11.90;8.37;;;13.00;1.00;;;;;;5068629;28;20536;-79
2023/04/24 04:08:14;;;;;;;10.20;7.63;;;13.10;1.00;;;;;;5066327;28;20478;-78
2023/04/24 04:10:42;;;;;;;10.40;8.17;;;13.20;1.00;;;;;;5071421;28;20481;-77
2023/04/24 04:13:09;;;;;;;11.50;8.70;;;13.20;1.00;;;;;;5069773;28;20484;-77
2023/04/24 04:15:38;;;;;;;10.87;7.60;;;13.20;1.00;;;;;;5069804;28;20411;-80
2023/04/24 04:18:05;;;;;;;9.97;7.87;;;13.30;1.00;;;;;;5081793;27;20463;-82
2023/04/24 04:20:34;;;;;;;9.93;7.10;;;13.30;1.00;;;;;;5078806;28;20601;-81
2023/04/24 04:23:07;;;;;;;9.20;7.00;;;13.30;1.00;;;;;;5073964;28;20513;-82
2023/04/24 04:25:34;;;;;;;11.00;7.50;;;13.30;1.00;;;;;;5095351;28;20491;-82
2023/04/24 04:28:01;;;;;;;9.37;7.37;;;13.30;1.00;;;;;;5087181;28;20504;-81
2023/04/24 04:30:31;;;;;;;10.67;8.57;;;13.30;1.00;;;;;;5081824;28;20747;-83
2023/04/24 04:33:02;;;;;;;11.37;7.77;;;13.30;1.00;;;;;;5067001;28;21034;-82
2023/04/24 04:35:37;;;;;;;10.80;7.20;;;13.30;1.00;;;;;;5090650;28;20423;-80
2023/04/24 04:38:16;;;;;;;10.20;7.50;;;13.30;1.00;;;;;;5074118;28;21149;-81
2023/04/24 04:40:44;;;;;;;10.20;8.17;;;13.30;1.00;;;;;;5077659;27;20428;-80
2023/04/24 04:43:13;;;;;;;11.33;7.90;;;13.40;1.00;;;;;;5062520;28;20440;-81
2023/04/24 04:45:41;;;;;;;18.47;8.90;;;13.40;1.00;;;;;;5064232;28;20414;-80
2023/04/24 04:48:13;;;;;;;10.10;7.70;;;13.40;1.00;;;;;;5081104;28;20483;-80
2023/04/24 04:50:45;;;;;;;9.40;6.93;;;13.40;1.00;;;;;;5087353;28;20448;-80
2023/04/24 04:53:13;;;;;;;11.90;7.23;;;13.40;1.00;;;;;;5084546;28;20460;-81
2023/04/24 04:55:43;;;;;;;9.37;6.60;;;13.40;1.00;;;;;;5084969;27;20434;-83
2023/04/24 04:58:10;;;;;;;10.70;7.40;;;13.40;1.00;;;;;;5051372;28;20635;-84
2023/04/24 05:00:38;;;;;;;10.30;6.93;;;13.40;1.00;;;;;;5081268;28;20501;-79
2023/04/24 05:03:06;;;;;;;11.30;8.30;;;13.50;1.00;;;;;;5062961;28;20960;-80
2023/04/24 05:05:35;;;;;;;9.90;7.30;;;13.40;1.00;;;;;;5079743;28;20464;-80
2023/04/24 05:08:02;;;;;;;9.63;7.43;;;13.50;1.00;;;;;;5060905;28;20491;-79
2023/04/24 05:10:30;;;;;;;9.20;6.10;;;13.60;1.00;;;;;;5052579;28;20521;-79
2023/04/24 05:12:57;;;;;;;8.50;6.13;;;13.50;1.00;;;;;;5057452;28;20550;-77
2023/04/24 05:15:24;;;;;;;9.20;5.90;;;13.40;1.00;;;;;;5063735;28;20558;-79
2023/04/24 05:17:51;;;;;;;10.37;6.40;;;13.30;1.00;;;;;;5063494;28;20478;-78
2023/04/24 05:20:18;;;;;;;9.50;6.83;;;13.40;1.00;;;;;;5068231;28;20541;-78
2023/04/24 05:22:47;;;;;;;8.00;5.83;;;13.40;1.00;;;;;;5066450;28;21284;-80
2023/04/24 05:25:14;;;;;;;11.57;7.23;;;13.50;1.00;;;;;;5075190;28;20629;-80
2023/04/24 05:27:41;;;;;;;9.20;5.33;;;13.50;1.00;;;;;;5079221;28;20475;-78
2023/04/24 05:30:10;;;;;;;10.10;6.30;;;13.50;1.00;;;;;;5052866;28;20432;-78
2023/04/24 05:32:37;;;;;;;10.33;6.80;;;13.60;1.00;;;;;;5048316;28;20599;-77
2023/04/24 05:35:07;;;;;;;12.00;7.10;;;13.70;1.00;;;;;;5052365;28;20503;-80
2023/04/24 05:37:34;;;;;;;12.87;6.70;;;13.70;1.00;;;;;;5057097;28;20534;-77
2023/04/24 05:40:05;;;;;;;9.80;5.83;;;13.90;1.00;;;;;;5058198;28;20522;-79
2023/04/24 05:42:32;;;;;;;10.20;7.87;;;14.00;1.00;;;;;;5050806;28;20441;-79
2023/04/24 05:44:59;;;;;;;7.90;4.43;;;14.00;1.00;;;;;;5058803;28;20528;-79
2023/04/24 05:47:27;;;;;;;10.50;5.07;;;14.00;1.00;;;;;;5058476;28;20483;-78
2023/04/24 05:49:54;;;;;;;9.73;4.77;;;14.00;1.00;;;;;;5059756;28;20531;-80
2023/04/24 05:52:21;;;;;;;7.43;4.60;;;14.10;1.00;;;;;;5055466;28;20483;-80
2023/04/24 05:54:48;;;;;;;7.23;4.33;;;14.10;1.00;;;;;;5055166;28;20453;-80
2023/04/24 05:57:16;;;;;;;11.00;5.60;;;14.20;1.00;;;;;;5060489;28;21096;-79
2023/04/24 05:59:43;;;;;;;8.33;4.40;;;14.20;1.00;;;;;;5053758;28;20456;-77
2023/04/24 06:02:10;;;;;;;7.83;4.20;;;14.20;1.00;;;;;;5049377;28;20452;-77
2023/04/24 06:04:37;;;;;;;9.60;4.10;;;14.20;1.00;;;;;;5049401;28;20448;-79
2023/04/24 06:07:04;;;;;;;7.60;4.60;;;14.10;1.00;;;;;;5047078;28;20872;-77
2023/04/24 06:09:31;;;;;;;8.20;4.30;;;14.20;1.00;;;;;;5049507;28;20495;-76
2023/04/24 06:11:59;;;;;;;8.47;4.17;;;14.20;1.00;;;;;;5055382;28;20572;-78
2023/04/24 06:14:29;;;;;;;8.70;4.33;;;14.30;1.00;;;;;;5052349;28;21310;-78
2023/04/24 06:16:57;;;;;;;8.10;3.57;;;14.30;1.00;;;;;;5057738;28;21325;-78
2023/04/24 06:19:24;;;;;;;6.53;3.00;;;14.40;1.00;;;;;;5031699;28;20483;-80
2023/04/24 06:21:51;;;;;;;7.13;3.70;;;14.50;1.00;;;;;;5059975;28;20480;-78
2023/04/24 06:24:18;;;;;;;6.40;3.20;;;14.50;1.00;;;;;;5057398;28;20543;-78
2023/04/24 06:26:45;;;;;;;8.43;3.20;;;14.50;1.00;;;;;;5057243;28;21257;-79
2023/04/24 06:29:12;;;;;;;6.60;3.07;;;14.50;1.00;;;;;;5057317;28;20502;-77
2023/04/24 06:31:40;;;;;;;6.70;2.70;;;14.60;1.00;;;;;;5058007;28;20860;-80
2023/04/24 06:34:07;;;;;;;5.60;2.37;;;14.60;1.00;;;;;;5059383;28;20868;-78
2023/04/24 06:36:38;;;;;;;6.80;2.60;;;14.60;1.00;;;;;;5058210;28;21313;-77
2023/04/24 06:39:05;;;;;;;6.50;2.97;;;14.50;1.00;;;;;;5064889;28;20876;-77
2023/04/24 06:41:32;;;;;;;5.70;2.60;;;14.60;1.00;;;;;;5060046;28;21000;-77
2023/04/24 06:43:59;;;;;;;6.83;2.80;;;14.60;1.00;;;;;;5078606;28;20439;-78
2023/04/24 06:46:27;;;;;;;6.80;2.87;;;14.90;1.00;;;;;;5076820;28;20514;-77
2023/04/24 06:48:57;;;;;;;8.27;2.40;;;15.10;1.00;;;;;;5079245;28;20880;-78
2023/04/24 06:51:27;;;;;;;6.17;2.50;;;15.20;1.00;;;;;;5064725;28;20942;-79
2023/04/24 06:53:55;;;;;;;5.93;2.30;;;15.50;1.00;;;;;;5074009;28;20439;-77
2023/04/24 06:56:22;;;;;;;7.83;2.43;;;15.60;1.00;;;;;;5065511;28;20519;-78
2023/04/24 06:58:49;;;;;;;7.30;2.90;;;15.80;1.00;;;;;;5077336;28;21198;-78
2023/04/24 07:01:16;;;;;;;7.07;2.37;;;16.10;1.00;;;;;;5072384;28;20475;-79
2023/04/24 07:03:43;;;;;;;6.20;2.00;;;16.20;1.00;;;;;;5073502;28;20463;-78
2023/04/24 07:06:12;;;;;;;6.50;2.70;;;16.30;1.00;;;;;;5075092;28;20477;-78
2023/04/24 07:08:39;;;;;;;6.30;2.57;;;16.30;1.00;;;;;;5077559;28;20537;-76
2023/04/24 07:11:06;;;;;;;11.10;6.33;;;16.40;1.00;;;;;;5074202;28;20563;-81
2023/04/24 07:13:35;;;;;;;6.20;1.93;;;16.30;1.00;;;;;;5069760;28;21253;-76
2023/04/24 07:16:03;;;;;;;6.67;1.67;;;16.40;1.00;;;;;;5075016;28;20434;-78
2023/04/24 07:18:30;;;;;;;6.60;1.53;;;16.30;1.00;;;;;;5071389;28;20547;-78
2023/04/24 07:20:57;;;;;;;8.47;2.10;;;16.30;1.00;;;;;;5073821;28;21304;-75
2023/04/24 07:23:26;;;;;;;5.90;1.43;;;16.30;1.00;;;;;;5075535;28;20680;-78
2023/04/24 07:25:53;;;;;;;5.87;1.63;;;16.30;1.00;;;;;;5073907;28;20577;-77
2023/04/24 07:28:20;;;;;;;12.70;3.13;;;16.60;1.00;;;;;;5072815;28;20474;-76
2023/04/24 07:30:47;;;;;;;6.03;1.77;;;16.90;1.00;;;;;;5073510;28;20429;-76
2023/04/24 07:33:14;;;;;;;5.87;1.73;;;17.20;1.00;;;;;;5075286;28;20501;-79
2023/04/24 07:35:41;;;;;;;7.80;2.03;;;17.40;1.00;;;;;;5074005;28;20470;-78
2023/04/24 07:38:08;;;;;;;5.70;1.90;;;17.60;1.00;;;;;;5075156;28;20463;-79
2023/04/24 07:40:36;;;;;;;5.50;1.63;;;17.60;1.00;;;;;;5075427;28;20466;-78
2023/04/24 07:43:03;;;;;;;5.50;1.50;;;17.70;1.00;;;;;;5073770;28;20466;-77
2023/04/24 07:45:31;;;;;;;8.07;1.87;;;17.70;1.00;;;;;;5077131;28;20443;-77
2023/04/24 07:47:58;;;;;;;6.07;1.50;;;17.70;1.00;;;;;;5072121;28;20870;-77
2023/04/24 07:50:25;;;;;;;10.20;1.40;;;17.60;1.00;;;;;;5073569;28;21299;-79
2023/04/24 07:52:53;;;;;;;5.63;1.57;;;17.50;1.00;;;;;;5074352;28;20446;-78
2023/04/24 07:55:20;;;;;;;5.50;1.40;;;17.60;1.00;;;;;;5073409;28;20472;-78
2023/04/24 07:57:48;;;;;;;5.10;1.10;;;17.70;1.00;;;;;;5073193;28;20466;-77
2023/04/24 08:00:16;;;;;;;5.97;1.00;;;17.80;1.00;;;;;;5070845;28;20485;-79
2023/04/24 08:02:43;;;;;;;5.67;1.47;;;17.90;1.00;;;;;;5070217;28;20501;-78
2023/04/24 08:05:10;;;;;;;7.43;2.10;;;18.00;1.00;;;;;;5070063;28;20464;-77
2023/04/24 08:07:38;;;;;;;6.00;1.40;;;18.00;1.00;;;;;;5067538;28;21073;-79
2023/04/24 08:10:06;;;;;;;5.83;1.37;;;18.20;1.00;;;;;;5067817;28;20895;-78
2023/04/24 08:12:33;;;;;;;6.07;1.10;;;18.30;1.00;;;;;;5072061;28;20886;-77
2023/04/24 08:15:02;;;;;;;5.10;1.13;;;18.60;1.00;;;;;;5072257;28;21199;-77
2023/04/24 08:17:29;;;;;;;5.83;1.30;;;18.80;1.00;;;;;;5076791;28;20427;-76
2023/04/24 08:20:01;;;;;;;5.00;1.17;;;18.90;1.00;;;;;;5072664;28;20467;-77
2023/04/24 08:22:28;;;;;;;5.50;1.33;;;19.00;1.00;;;;;;5073824;28;20436;-77
2023/04/24 08:24:55;;;;;;;5.60;1.97;;;18.90;1.00;;;;;;5075283;28;20466;-78
2023/04/24 08:27:22;;;;;;;5.80;1.53;;;18.80;1.00;;;;;;5074805;28;20924;-78
2023/04/24 08:29:51;;;;;;;5.80;1.60;;;18.70;1.00;;;;;;5081587;28;20432;-78
2023/04/24 08:32:20;;;;;;;7.03;2.03;;;18.80;1.00;;;;;;5080197;27;20472;-78
2023/04/24 08:34:49;;;;;;;6.73;1.40;;;19.00;1.00;;;;;;5079421;28;20449;-80
2023/04/24 08:37:16;;;;;;;6.17;1.50;;;19.20;1.00;;;;;;5079462;28;20456;-80
2023/04/24 08:39:43;;;;;;;6.37;1.40;;;19.40;1.00;;;;;;5082582;28;20543;-78
2023/04/24 08:42:12;;;;;;;6.80;1.60;;;19.60;1.00;;;;;;5081864;28;20454;-78
2023/04/24 08:44:39;;;;;;;6.00;1.53;;;19.80;1.00;;;;;;5081490;28;20525;-81
2023/04/24 08:47:10;;;;;;;5.30;1.10;;;20.00;1.00;;;;;;5076929;28;20442;-78
2023/04/24 08:49:41;;;;;;;5.60;1.33;;;20.00;1.00;;;;;;5079037;28;20467;-79
2023/04/24 08:52:08;;;;;;;5.90;1.43;;;20.10;1.00;;;;;;5079293;28;20482;-79
2023/04/24 08:54:38;;;;;;;6.27;1.60;;;20.10;1.00;;;;;;5081418;28;20506;-79
2023/04/24 08:57:11;;;;;;;6.60;1.10;;;20.40;1.00;;;;;;5076532;28;20970;-80
2023/04/24 08:59:39;;;;;;;6.80;1.20;;;20.40;1.00;;;;;;5083954;28;20467;-78
2023/04/24 09:02:07;;;;;;;4.80;1.00;;;20.40;1.00;;;;;;5080243;28;20521;-80
2023/04/24 09:04:36;;;;;;;5.97;2.00;;;20.30;1.00;;;;;;5072715;28;20472;-78
2023/04/24 09:07:07;;;;;;;5.37;1.30;;;20.30;1.00;;;;;;5076054;27;20526;-78
2023/04/24 09:09:35;;;;;;;5.13;1.03;;;20.50;1.00;;;;;;5078437;28;20501;-79
2023/04/24 09:12:03;;;;;;;4.80;0.90;;;20.80;1.00;;;;;;5078447;28;20465;-79
2023/04/24 09:14:31;;;;;;;4.80;0.90;;;21.10;1.00;;;;;;5079185;28;20475;-78
2023/04/24 09:16:58;;;;;;;9.27;3.43;;;21.30;1.00;;;;;;5077436;28;20548;-79
2023/04/24 09:19:25;;;;;;;4.63;1.13;;;21.20;1.00;;;;;;5080312;28;21001;-78
2023/04/24 09:21:54;;;;;;;5.67;1.40;;;21.10;1.00;;;;;;5075759;28;20537;-79
2023/04/24 09:24:24;;;;;;;5.20;1.10;;;20.90;1.00;;;;;;5079401;28;20479;-81
2023/04/24 09:27:01;;;;;;;5.10;1.73;;;20.60;1.00;;;;;;5077311;27;20428;-79
2023/04/24 09:29:28;;;;;;;5.50;1.50;;;20.20;1.00;;;;;;5076221;28;20599;-78
2023/04/24 09:31:55;;;;;;;6.83;1.70;;;20.10;1.00;;;;;;5076053;28;20467;-79
2023/04/24 09:34:24;;;;;;;5.90;1.10;;;20.00;1.00;;;;;;5079980;28;20459;-78
2023/04/24 09:36:52;;;;;;;6.17;1.17;;;19.90;1.00;;;;;;5077771;27;20460;-78
2023/04/24 09:39:20;;;;;;;7.00;1.80;;;19.80;1.00;;;;;;5075329;28;20466;-78
2023/04/24 09:41:51;;;;;;;6.00;1.30;;;19.70;1.00;;;;;;5074289;28;20423;-80
2023/04/24 09:44:20;;;;;;;5.30;1.40;;;19.30;1.00;;;;;;5079571;28;20470;-80
2023/04/24 09:46:52;;;;;;;5.23;1.17;;;18.90;1.00;;;;;;5078247;28;20428;-80
2023/04/24 09:49:25;;;;;;;5.47;1.20;;;18.50;1.00;;;;;;5078552;27;20552;-80
2023/04/24 09:51:52;;;;;;;7.77;1.53;;;18.30;1.00;;;;;;5076649;28;20431;-79
2023/04/24 09:54:21;;;;;;;7.20;1.40;;;18.30;1.00;;;;;;5077724;28;21266;-78
2023/04/24 09:56:52;;;;;;;6.27;1.50;;;18.30;1.00;;;;;;5078645;28;20487;-79
2023/04/24 09:59:20;;;;;;;4.90;1.17;;;18.30;1.00;;;;;;5079503;28;20468;-80
2023/04/24 10:01:49;;;;;;;5.33;1.40;;;18.70;1.00;;;;;;5079756;28;20484;-79
2023/04/24 10:04:20;;;;;;;7.10;1.60;;;19.00;1.00;;;;;;5076863;28;21084;-80
2023/04/24 10:06:48;;;;;;;5.27;1.47;;;19.50;1.00;;;;;;5074603;28;20489;-79
2023/04/24 10:09:16;;;;;;;5.50;1.30;;;19.80;1.00;;;;;;5076680;28;21035;-79
2023/04/24 10:11:45;;;;;;;7.80;1.60;;;20.20;1.00;;;;;;5079266;28;20478;-80
2023/04/24 10:14:15;;;;;;;4.97;1.10;;;20.60;1.00;;;;;;5074093;28;20475;-81
2023/04/24 10:16:46;;;;;;;6.67;1.33;;;20.70;1.00;;;;;;5073166;28;20431;-80
2023/04/24 10:19:14;;;;;;;5.33;1.27;;;20.80;1.00;;;;;;5075970;28;20461;-78
2023/04/24 10:21:46;;;;;;;5.43;1.37;;;20.40;1.00;;;;;;5075984;28;20528;-79
2023/04/24 10:24:14;;;;;;;4.87;1.17;;;20.40;1.00;;;;;;5073790;27;20493;-78
2023/04/24 10:26:42;;;;;;;5.37;1.53;;;20.50;1.00;;;;;;5068085;28;20458;-81
2023/04/24 10:29:12;;;;;;;5.37;1.33;;;20.60;1.00;;;;;;5078725;28;20467;-80
2023/04/24 10:31:41;;;;;;;5.40;1.10;;;20.70;1.00;;;;;;5070789;28;21027;-80
2023/04/24 10:34:09;;;;;;;4.80;1.10;;;20.50;1.00;;;;;;5071769;28;20485;-79
2023/04/24 10:36:39;;;;;;;6.60;1.40;;;20.60;1.00;;;;;;5068192;28;20465;-79
2023/04/24 10:39:10;;;;;;;4.90;0.80;;;20.80;1.00;;;;;;5069401;28;20890;-79
2023/04/24 10:41:38;;;;;;;5.10;1.23;;;20.70;1.00;;;;;;5069539;28;20964;-80
2023/04/24 10:44:07;;;;;;;5.47;0.90;;;20.30;1.00;;;;;;5072033;28;20552;-80
2023/04/24 10:46:34;;;;;;;5.67;0.87;;;19.90;1.00;;;;;;5069350;28;20962;-80
2023/04/24 10:49:06;;;;;;;12.00;1.40;;;19.60;1.00;;;;;;5070645;28;20467;-80
2023/04/24 10:51:53;;;;;;;5.30;1.20;;;19.70;1.00;;;;;;5074931;28;20497;-79
2023/04/24 10:54:27;;;;;;;5.43;1.23;;;19.60;1.00;;;;;;5067452;28;20557;-79
2023/04/24 10:57:14;;;;;;;5.37;1.20;;;19.50;1.00;;;;;;5070110;28;20493;-80
2023/04/24 10:59:42;;;;;;;5.00;1.00;;;19.50;1.00;;;;;;5066775;28;20463;-79
2023/04/24 11:02:09;;;;;;;5.63;1.23;;;19.30;1.00;;;;;;5069122;28;20461;-81
2023/04/24 11:04:39;;;;;;;5.43;1.40;;;19.20;1.00;;;;;;5071603;28;20537;-78
2023/04/24 11:07:06;;;;;;;7.27;1.60;;;19.20;1.00;;;;;;5072066;28;20441;-81
2023/04/24 11:09:36;;;;;;;7.20;1.33;;;19.40;1.00;;;;;;5069366;28;20457;-79
2023/04/24 11:12:08;;;;;;;8.10;2.93;;;19.70;1.00;;;;;;5070339;28;20432;-79
2023/04/24 11:15:01;;;;;;;5.73;1.50;;;19.80;1.00;;;;;;5072388;28;20526;-80
2023/04/24 11:17:31;;;;;;;5.43;1.67;;;20.50;1.00;;;;;;5048648;28;20458;-83
2023/04/24 11:20:04;;;;;;;5.53;1.23;;;22.90;1.00;;;;;;5049632;28;20492;-82
2023/04/24 11:22:35;;;;;;;6.23;1.37;;;25.50;1.00;;;;;;5063995;28;20466;-80
2023/04/24 11:25:03;;;;;;;7.30;1.50;;;26.50;1.00;;;;;;5071807;28;21046;-80
2023/04/24 11:27:33;;;;;;;5.53;1.30;;;26.30;1.00;;;;;;5076177;28;21782;-81
2023/04/24 11:30:02;;;;;;;6.50;1.80;;;25.30;1.00;;;;;;5072686;28;20465;-79
2023/04/24 11:32:31;;;;;;;5.67;1.60;;;24.20;1.00;;;;;;5069533;28;20433;-81
2023/04/24 11:35:00;;;;;;;5.00;1.40;;;23.00;1.00;;;;;;5076475;28;20971;-81
2023/04/24 11:37:30;;;;;;;5.90;1.90;;;21.90;1.00;;;;;;5071743;28;20494;-80
2023/04/24 11:39:59;;;;;;;8.13;2.20;;;20.80;1.00;;;;;;5073233;28;20536;-84
2023/04/24 11:42:26;;;;;;;8.60;2.37;;;19.60;1.00;;;;;;5073107;28;20483;-80
2023/04/24 11:44:56;;;;;;;8.80;2.37;;;18.10;1.00;;;;;;5074107;28;20965;-77
2023/04/24 11:47:33;;;;;;;6.97;1.73;;;16.40;1.00;;;;;;5051715;28;20500;-77
2023/04/24 11:50:01;;;;;;;8.17;1.90;;;15.10;1.00;;;;;;5063091;28;20491;-78
2023/04/24 11:52:30;;;;;;;9.90;2.33;;;14.60;1.00;;;;;;5071163;28;20456;-78
2023/04/24 11:54:58;;;;;;;7.50;3.17;;;14.60;1.00;;;;;;5074361;28;20552;-83
2023/04/24 11:57:28;;;;;;;7.37;3.03;;;15.60;1.00;;;;;;5076805;28;20468;-78
2023/04/24 11:59:55;;;;;;;10.23;3.27;;;17.50;1.00;;;;;;5076935;28;20480;-76
2023/04/24 12:02:26;;;;;;;9.07;2.50;;;19.00;1.00;;;;;;5072590;28;21205;-78
2023/04/24 12:04:54;;;;;;;5.50;1.57;;;20.40;1.00;;;;;;5073428;28;20477;-78
2023/04/24 12:07:21;;;;;;;6.90;1.70;;;21.70;1.00;;;;;;5074909;28;20480;-77
2023/04/24 12:09:57;;;;;;;7.90;1.90;;;23.30;1.00;;;;;;5073615;28;20487;-79
2023/04/24 12:12:27;;;;;;;5.70;1.20;;;24.70;1.00;;;;;;5061391;28;20491;-79
2023/04/24 12:14:55;;;;;;;5.70;1.60;;;25.50;1.00;;;;;;5073494;28;20569;-78
2023/04/24 12:17:26;;;;;;;5.80;1.10;;;26.10;1.00;;;;;;5074097;28;20944;-77
2023/04/24 12:19:53;;;;;;;8.30;3.83;;;26.90;1.00;;;;;;5073094;28;20474;-77
2023/04/24 12:22:20;;;;;;;4.00;0.90;;;27.30;1.00;;;;;;5071567;28;20479;-77
2023/04/24 12:25:06;;;;;;;4.03;1.20;;;27.20;1.00;;;;;;5076050;28;20528;-79
2023/04/24 12:27:33;;;;;;;4.90;1.40;;;27.40;1.00;;;;;;5073637;28;20510;-79
2023/04/24 12:30:02;;;;;;;4.50;1.20;;;28.10;1.00;;;;;;5073729;28;20463;-79
2023/04/24 12:32:29;;;;;;;4.37;1.00;;;28.20;1.00;;;;;;5075191;28;20512;-78
2023/04/24 12:34:57;;;;;;;6.10;1.80;;;27.20;1.00;;;;;;5076465;28;20481;-77
2023/04/24 12:37:26;;;;;;;3.77;0.90;;;27.00;1.00;;;;;;5073261;28;20454;-77
2023/04/24 12:40:00;;;;;;;5.40;1.57;;;26.00;1.00;;;;;;5074277;28;20454;-78
2023/04/24 12:42:30;;;;;;;5.10;1.20;;;24.60;1.00;;;;;;5069351;27;20462;-78
2023/04/24 12:45:01;;;;;;;5.57;1.73;;;23.10;1.00;;;;;;5071345;28;20475;-78
2023/04/24 12:47:30;;;;;;;4.97;1.07;;;22.40;1.00;;;;;;5074610;28;20936;-77
2023/04/24 12:49:57;;;;;;;5.33;1.47;;;21.90;1.00;;;;;;5070762;28;20931;-77
2023/04/24 12:52:25;;;;;;;5.10;1.33;;;21.40;1.00;;;;;;5053547;28;20553;-77
2023/04/24 12:54:54;;;;;;;5.37;1.50;;;21.20;1.00;;;;;;5051966;28;20465;-78
2023/04/24 12:57:21;;;;;;;4.47;1.33;;;21.10;1.00;;;;;;5047225;28;20447;-77
2023/04/24 12:59:50;;;;;;;4.80;1.20;;;20.80;1.00;;;;;;5070019;28;20551;-77
2023/04/24 13:02:18;;;;;;;4.20;1.10;;;21.40;1.00;;;;;;5075198;28;20459;-79